СИЛА РОССИИ. Форум сайта «Отвага» (www.otvaga2004.ru)

Информация о пользователе

Привет, Гость! Войдите или зарегистрируйтесь.


Вы здесь » СИЛА РОССИИ. Форум сайта «Отвага» (www.otvaga2004.ru) » Вооружение сухопутных войск


Вооружение сухопутных войск

Тем 61 страница 90 из 207

Тема Ответов Просмотров Последнее сообщение
763 44469 2021-02-15 09:30:40  powermax
0 997 2021-02-06 09:41:38  mr_tank
4 1385 2021-02-05 11:23:19  mr_tank
245 37256 2021-01-05 14:54:46  Oleg7700
86 33027 2020-12-04 17:29:49  Механический кот
66 Закрыта Противотанковые средства 6  finnbogi  [ 1 2 3  40 ]
1177 84101 2020-11-02 23:25:40  Retiv
67 Закрыта Пулеметы-8  KORVIN  [ 1 2 3  34 ]
993 126684 2020-10-30 21:22:50  Мак Сим
68 Закрыта Вооруженные силы: общие вопросы 4  Realist  [ 1 2 3  35 ]
1047 77761 2020-10-24 14:35:33  Механический кот
69 Закрыта Средства ПВО-9  ДимитриUS  [ 1 2 3  37 ]
1090 125510 2020-10-22 21:29:22  Blitz.
1396 147143 2020-10-19 17:10:14  Wind
71 Закрыта Средства ПВО - 8  kinetic  [ 1 2 3  30 ]
882 112200 2020-09-25 21:59:29  Oleg7700
72 вопрос про КПВТ  Нихтферштейн
4 1612 2020-06-13 21:26:23  Blitz.
20 4134 2020-05-17 10:47:45  Astax
74 Оружейные и околооружейные новости  Хорт мохнатый  [ 1 2 3  17 ]
488 62290 2020-02-05 15:47:21  TK-421
939 92578 2019-10-23 17:29:42  __Memento_mori__
76 Околовоенные новости  Zaklepkin  [ 1 2 3  10 ]
284 31802 2019-09-26 10:46:32  humanitarius
648 10957 2019-09-18 21:47:26  sasa
78 Пистолеты-3  KORVIN  [ 1 2 3  33 ]
978 62346 2019-09-13 01:22:27  KORVIN
79 Какими должны быть ВДВ? - 4  Сергей-1982  [ 1 2 3  26 ]
768 10692 2019-09-04 15:45:41  Арсений80
0 547 2019-08-25 11:15:20  sasa
928 26974 2019-08-25 10:29:39  finnbogi
82 Инженерные войска.  Виталий Иванович (PQ)  [ 1 2 3  18 ]
526 64849 2019-07-02 07:49:51  NoName
83 Народно-освободительная армия Китая 2  Виталий Иванович (PQ)  [ 1 2 3  34 ]
999 94519 2019-06-17 19:39:53  Абалкин
1 796 2019-06-08 04:21:05  GRU
85 Противотанковые средства 6  Атабек  [ 1 2 3  33 ]
973 70183 2019-06-05 17:01:35  Шестопер
86 Экспорт оружия.  Сергей-1982
0 483 2019-06-03 14:57:14  Сергей-1982
482 13574 2019-05-13 19:22:07  Абалкин
48 7251 2019-05-11 23:10:37  vasya83
34 6482 2019-04-28 22:26:31  Medved_A
913 70477 2019-04-05 11:59:50  Арсений80

Вы здесь » СИЛА РОССИИ. Форум сайта «Отвага» (www.otvaga2004.ru) » Вооружение сухопутных войск